createdAt,value
2023-06-01T00:00:15.193Z,0.00
2023-06-01T00:01:15.149Z,0.00
2023-06-01T00:02:15.151Z,0.00
2023-06-01T00:03:15.317Z,0.00
2023-06-01T00:04:15.139Z,0.00
2023-06-01T00:05:15.090Z,0.00
2023-06-01T00:06:15.094Z,0.00
2023-06-01T00:07:15.054Z,0.00
2023-06-01T00:08:15.043Z,0.00
2023-06-01T00:09:15.028Z,0.00
2023-06-01T00:10:15.023Z,0.00
2023-06-01T00:11:15.012Z,0.00
2023-06-01T00:12:14.986Z,0.00
2023-06-01T00:13:14.989Z,0.00
2023-06-01T00:14:14.968Z,0.00
2023-06-01T00:15:14.958Z,0.00
2023-06-01T00:16:14.990Z,0.00
2023-06-01T00:17:14.923Z,0.00
2023-06-01T00:18:14.934Z,0.00
2023-06-01T00:19:14.883Z,0.00
2023-06-01T00:20:14.903Z,0.00
2023-06-01T00:21:14.861Z,0.00
2023-06-01T00:22:14.865Z,0.00
2023-06-01T00:23:14.845Z,0.00
2023-06-01T00:24:14.851Z,0.00
2023-06-01T00:25:15.048Z,0.00
2023-06-01T00:26:14.790Z,0.00
2023-06-01T00:27:14.787Z,0.00
2023-06-01T00:28:14.770Z,0.00
2023-06-01T00:29:14.765Z,0.00
2023-06-01T00:30:14.763Z,0.00
2023-06-01T00:31:14.744Z,0.00
2023-06-01T00:32:14.716Z,0.00
2023-06-01T00:33:14.781Z,0.00
2023-06-01T00:34:14.709Z,0.00
2023-06-01T00:35:14.685Z,0.00
2023-06-01T00:36:14.668Z,0.00
2023-06-01T00:37:14.664Z,0.00
2023-06-01T00:38:14.640Z,0.00
2023-06-01T00:39:14.652Z,0.00
2023-06-01T00:40:14.620Z,0.00
2023-06-01T00:41:14.604Z,0.00
2023-06-01T00:42:14.594Z,0.00
2023-06-01T00:43:14.580Z,0.00
2023-06-01T00:44:14.571Z,0.00
2023-06-01T00:45:14.543Z,0.00
2023-06-01T00:46:14.530Z,0.00
2023-06-01T00:47:14.592Z,0.00
2023-06-01T00:48:14.533Z,0.00
2023-06-01T00:49:14.491Z,0.00
2023-06-01T00:50:14.490Z,0.00
2023-06-01T00:51:14.458Z,0.00
2023-06-01T00:52:14.465Z,0.00
2023-06-01T00:53:14.462Z,0.00
2023-06-01T00:54:14.415Z,0.00
2023-06-01T00:55:14.415Z,0.00
2023-06-01T00:56:14.398Z,0.00
2023-06-01T00:57:14.399Z,0.00
2023-06-01T00:58:14.371Z,0.00
2023-06-01T00:59:14.352Z,0.00
2023-06-01T01:00:14.335Z,0.00
2023-06-01T01:01:14.367Z,0.00
2023-06-01T01:02:14.345Z,0.00
2023-06-01T01:03:14.345Z,0.00
2023-06-01T01:04:14.381Z,0.00
2023-06-01T01:05:14.274Z,0.00
2023-06-01T01:06:14.270Z,0.00
2023-06-01T01:07:14.257Z,0.00
2023-06-01T01:08:14.226Z,0.00
2023-06-01T01:09:14.217Z,0.00
2023-06-01T01:10:14.224Z,0.00
2023-06-01T01:11:14.242Z,0.00
2023-06-01T01:12:14.208Z,0.00
2023-06-01T01:13:14.166Z,0.00
2023-06-01T01:14:14.164Z,0.00
2023-06-01T01:15:14.162Z,0.00
2023-06-01T01:16:14.135Z,0.00
2023-06-01T01:17:14.138Z,0.00
2023-06-01T01:18:14.095Z,0.00
2023-06-01T01:19:37.553Z,0.00
2023-06-01T01:20:14.069Z,0.00
2023-06-01T01:21:14.072Z,0.00
2023-06-01T01:22:14.041Z,0.00
2023-06-01T01:23:14.050Z,0.00
2023-06-01T01:24:14.033Z,0.00
2023-06-01T01:25:14.057Z,0.00
2023-06-01T01:26:14.019Z,0.00
2023-06-01T01:27:13.981Z,0.00
2023-06-01T01:28:14.009Z,0.00
2023-06-01T01:29:14.001Z,0.00
2023-06-01T01:30:13.997Z,0.00
2023-06-01T01:31:14.104Z,0.00
2023-06-01T01:32:13.992Z,0.00
2023-06-01T01:33:13.902Z,0.00
2023-06-01T01:34:13.906Z,0.00
2023-06-01T01:35:13.896Z,0.00
2023-06-01T01:36:13.864Z,0.00
2023-06-01T01:37:13.858Z,0.00
2023-06-01T01:38:13.839Z,0.00
2023-06-01T01:39:13.829Z,0.00
2023-06-01T01:40:13.818Z,0.00
2023-06-01T01:41:13.793Z,0.00
2023-06-01T01:42:13.783Z,0.00
2023-06-01T01:43:13.774Z,0.00
2023-06-01T01:44:13.784Z,0.00
2023-06-01T01:45:13.762Z,0.00
2023-06-01T01:46:13.732Z,0.00
2023-06-01T01:47:13.781Z,0.00
2023-06-01T01:48:13.735Z,0.00
2023-06-01T01:49:13.706Z,0.00
2023-06-01T01:50:13.715Z,0.00
2023-06-01T01:51:13.685Z,0.00
2023-06-01T01:52:13.659Z,0.00
2023-06-01T01:53:13.633Z,0.00
2023-06-01T01:54:13.642Z,0.00
2023-06-01T01:55:13.622Z,0.00
2023-06-01T01:56:13.590Z,0.00
2023-06-01T01:57:13.586Z,0.00
2023-06-01T01:58:13.564Z,0.00
2023-06-01T01:59:13.584Z,0.00
2023-06-01T02:00:13.552Z,0.00
2023-06-01T02:01:13.542Z,0.00
2023-06-01T02:02:13.564Z,0.00
2023-06-01T02:03:13.583Z,0.00
2023-06-01T02:04:13.500Z,0.00
2023-06-01T02:05:13.485Z,0.00
2023-06-01T02:06:13.469Z,0.00
2023-06-01T02:07:13.450Z,0.00
2023-06-01T02:08:13.450Z,0.00
2023-06-01T02:09:13.430Z,0.00
2023-06-01T02:10:13.414Z,0.00
2023-06-01T02:11:13.410Z,0.00
2023-06-01T02:12:13.383Z,0.00
2023-06-01T02:13:13.406Z,0.00
2023-06-01T02:14:13.361Z,0.00
2023-06-01T02:15:13.348Z,0.00
2023-06-01T02:16:13.380Z,0.00
2023-06-01T02:17:13.322Z,0.00
2023-06-01T02:18:13.333Z,0.00
2023-06-01T02:19:13.286Z,0.00
2023-06-01T02:20:13.295Z,0.00
2023-06-01T02:21:13.268Z,0.00
2023-06-01T02:22:13.271Z,0.00
2023-06-01T02:23:13.256Z,0.00
2023-06-01T02:24:13.216Z,0.00
2023-06-01T02:25:13.205Z,0.00
2023-06-01T02:26:13.214Z,0.00
2023-06-01T02:27:13.192Z,0.00
2023-06-01T02:28:13.175Z,0.00
2023-06-01T02:29:13.158Z,0.00
2023-06-01T02:30:13.162Z,0.00
2023-06-01T02:31:13.154Z,0.00
2023-06-01T02:32:13.141Z,0.00
2023-06-01T02:33:13.222Z,0.00
2023-06-01T02:34:13.110Z,0.00
2023-06-01T02:35:13.075Z,0.00
2023-06-01T02:36:13.097Z,0.00
2023-06-01T02:37:13.067Z,0.00
2023-06-01T02:38:13.053Z,0.00
2023-06-01T02:39:13.011Z,0.00
2023-06-01T02:40:13.016Z,0.00
2023-06-01T02:41:13.009Z,0.00
2023-06-01T02:42:13.028Z,0.00
2023-06-01T02:43:12.957Z,0.00
2023-06-01T02:44:12.963Z,0.00
2023-06-01T02:45:12.953Z,0.00
2023-06-01T02:46:12.998Z,0.00
2023-06-01T02:47:12.915Z,0.00
2023-06-01T02:48:12.904Z,0.00
2023-06-01T02:49:12.902Z,0.00
2023-06-01T02:50:12.886Z,0.00
2023-06-01T02:51:12.885Z,0.00
2023-06-01T02:52:12.867Z,0.00
2023-06-01T02:53:12.843Z,0.00
2023-06-01T02:54:12.833Z,0.00
2023-06-01T02:55:12.849Z,0.00
2023-06-01T02:56:12.821Z,0.00
2023-06-01T02:57:12.769Z,0.00
2023-06-01T02:58:12.780Z,0.00
2023-06-01T02:59:12.765Z,0.00
2023-06-01T03:00:12.769Z,0.00
2023-06-01T03:01:12.885Z,5.62
2023-06-01T03:02:12.721Z,5.62
2023-06-01T03:03:12.710Z,5.62
2023-06-01T03:04:12.739Z,5.62
2023-06-01T03:05:12.695Z,5.62
2023-06-01T03:06:12.686Z,5.62
2023-06-01T03:07:12.659Z,5.62
2023-06-01T03:08:12.648Z,5.62
2023-06-01T03:09:12.636Z,5.62
2023-06-01T03:10:12.634Z,5.62
2023-06-01T03:11:12.591Z,11.25
2023-06-01T03:12:12.600Z,11.25
2023-06-01T03:13:12.576Z,11.25
2023-06-01T03:14:12.634Z,11.25
2023-06-01T03:15:12.544Z,11.25
2023-06-01T03:16:12.598Z,11.25
2023-06-01T03:17:12.520Z,16.88
2023-06-01T03:18:12.619Z,16.88
2023-06-01T03:19:12.493Z,16.88
2023-06-01T03:20:12.495Z,16.88
2023-06-01T03:21:12.490Z,22.50
2023-06-01T03:22:12.471Z,22.50
2023-06-01T03:23:12.422Z,22.50
2023-06-01T03:24:12.442Z,22.50
2023-06-01T03:25:12.412Z,22.50
2023-06-01T03:26:12.412Z,28.12
2023-06-01T03:27:12.374Z,28.12
2023-06-01T03:28:12.397Z,28.12
2023-06-01T03:29:12.378Z,28.12
2023-06-01T03:30:12.377Z,33.75
2023-06-01T03:31:12.376Z,33.75
2023-06-01T03:32:12.340Z,33.75
2023-06-01T03:33:12.336Z,33.75
2023-06-01T03:34:12.289Z,39.38
2023-06-01T03:35:12.287Z,39.38
2023-06-01T03:36:12.292Z,39.38
2023-06-01T03:37:12.262Z,45.00
2023-06-01T03:38:12.246Z,45.00
2023-06-01T03:39:12.233Z,45.00
2023-06-01T03:40:12.256Z,50.62
2023-06-01T03:41:12.189Z,50.62
2023-06-01T03:42:12.205Z,50.62
2023-06-01T03:43:12.184Z,56.25
2023-06-01T03:44:12.165Z,56.25
2023-06-01T03:45:12.155Z,56.25
2023-06-01T03:46:12.160Z,61.88
2023-06-01T03:47:12.136Z,61.88
2023-06-01T03:48:12.168Z,61.88
2023-06-01T03:49:12.129Z,61.88
2023-06-01T03:50:12.095Z,67.50
2023-06-01T03:51:12.059Z,67.50
2023-06-01T03:52:12.092Z,67.50
2023-06-01T03:53:12.038Z,73.12
2023-06-01T03:54:12.039Z,73.12
2023-06-01T03:55:12.079Z,78.75
2023-06-01T03:56:12.016Z,78.75
2023-06-01T03:57:11.985Z,78.75
2023-06-01T03:58:11.992Z,84.38
2023-06-01T03:59:11.961Z,84.38
2023-06-01T04:00:11.954Z,90.00
2023-06-01T04:01:11.947Z,95.62
2023-06-01T04:02:11.984Z,95.62
2023-06-01T04:03:11.927Z,106.88
2023-06-01T04:04:11.958Z,112.50
2023-06-01T04:05:11.884Z,157.50
2023-06-01T04:06:11.885Z,213.75
2023-06-01T04:07:11.850Z,320.62
2023-06-01T04:08:11.858Z,478.12
2023-06-01T04:09:11.829Z,680.62
2023-06-01T04:10:11.817Z,658.12
2023-06-01T04:11:11.825Z,658.12
2023-06-01T04:12:11.793Z,1023.75
2023-06-01T04:13:11.799Z,1203.75
2023-06-01T04:14:11.761Z,826.88
2023-06-01T04:15:11.729Z,489.38
2023-06-01T04:16:11.819Z,495.00
2023-06-01T04:17:11.752Z,849.38
2023-06-01T04:18:11.726Z,1192.50
2023-06-01T04:19:13.110Z,1057.50
2023-06-01T04:20:12.635Z,798.75
2023-06-01T04:21:11.665Z,1119.38
2023-06-01T04:22:11.643Z,1276.88
2023-06-01T04:23:11.652Z,905.62
2023-06-01T04:24:13.791Z,613.12
2023-06-01T04:25:11.608Z,691.88
2023-06-01T04:26:11.603Z,1231.88
2023-06-01T04:27:11.580Z,1822.50
2023-06-01T04:28:13.396Z,1856.25
2023-06-01T04:29:11.554Z,1389.38
2023-06-01T04:30:11.565Z,860.62
2023-06-01T04:31:11.520Z,826.88
2023-06-01T04:32:11.610Z,855.00
2023-06-01T04:33:11.571Z,1237.50
2023-06-01T04:34:11.512Z,1327.50
2023-06-01T04:35:11.540Z,1074.38
2023-06-01T04:36:11.453Z,1473.75
2023-06-01T04:37:11.452Z,1935.00
2023-06-01T04:38:11.447Z,1608.75
2023-06-01T04:39:11.424Z,978.75
2023-06-01T04:40:11.473Z,703.12
2023-06-01T04:41:11.396Z,956.25
2023-06-01T04:42:11.383Z,1462.50
2023-06-01T04:43:11.371Z,1501.88
2023-06-01T04:44:11.375Z,1378.12
2023-06-01T04:45:11.590Z,1608.75
2023-06-01T04:46:11.388Z,1035.00
2023-06-01T04:47:11.317Z,1091.25
2023-06-01T04:48:11.386Z,1203.75
2023-06-01T04:49:11.280Z,1805.62
2023-06-01T04:50:11.272Z,1935.00
2023-06-01T04:51:11.249Z,1411.88
2023-06-01T04:52:11.245Z,1316.25
2023-06-01T04:53:11.244Z,1670.62
2023-06-01T04:54:11.237Z,1473.75
2023-06-01T04:55:11.222Z,1170.00
2023-06-01T04:56:11.196Z,1209.38
2023-06-01T04:57:11.201Z,1125.00
2023-06-01T04:58:11.188Z,1732.50
2023-06-01T04:59:11.149Z,2401.88
2023-06-01T05:00:11.147Z,2863.12
2023-06-01T05:01:11.156Z,2030.62
2023-06-01T05:02:11.127Z,1023.75
2023-06-01T05:03:11.167Z,843.75
2023-06-01T05:04:11.177Z,1535.62
2023-06-01T05:05:11.182Z,2621.25
2023-06-01T05:06:11.064Z,3065.62
2023-06-01T05:07:11.081Z,2576.25
2023-06-01T05:08:11.037Z,1496.25
2023-06-01T05:09:11.036Z,1243.12
2023-06-01T05:10:11.016Z,1203.75
2023-06-01T05:11:11.021Z,1642.50
2023-06-01T05:12:11.072Z,2233.12
2023-06-01T05:13:10.963Z,2036.25
2023-06-01T05:14:10.969Z,1473.75
2023-06-01T05:15:10.956Z,1833.75
2023-06-01T05:16:11.021Z,2671.88
2023-06-01T05:17:10.921Z,2188.12
2023-06-01T05:18:10.954Z,1282.50
2023-06-01T05:19:10.892Z,1265.62
2023-06-01T05:20:10.903Z,1361.25
2023-06-01T05:21:10.874Z,2413.12
2023-06-01T05:22:10.877Z,2970.00
2023-06-01T05:23:10.845Z,2863.12
2023-06-01T05:24:10.848Z,1951.88
2023-06-01T05:25:10.857Z,1136.25
2023-06-01T05:26:10.832Z,1046.25
2023-06-01T05:27:10.800Z,2025.00
2023-06-01T05:28:10.782Z,3296.25
2023-06-01T05:29:10.779Z,3245.62
2023-06-01T05:30:10.784Z,2351.25
2023-06-01T05:31:10.766Z,1473.75
2023-06-01T05:32:10.727Z,1316.25
2023-06-01T05:33:10.832Z,1434.38
2023-06-01T05:34:10.703Z,2227.50
2023-06-01T05:35:10.700Z,3138.75
2023-06-01T05:36:10.694Z,2880.00
2023-06-01T05:37:10.657Z,2013.75
2023-06-01T05:38:10.641Z,1563.75
2023-06-01T05:39:10.625Z,1906.88
2023-06-01T05:40:10.668Z,1693.12
2023-06-01T05:41:10.602Z,1861.88
2023-06-01T05:42:10.593Z,1901.25
2023-06-01T05:43:10.572Z,1653.75
2023-06-01T05:44:10.594Z,2148.75
2023-06-01T05:45:10.596Z,2992.50
2023-06-01T05:46:10.585Z,2604.38
2023-06-01T05:47:10.571Z,1895.62
2023-06-01T05:48:10.600Z,1580.62
2023-06-01T05:49:10.564Z,1440.00
2023-06-01T05:50:10.494Z,2300.62
2023-06-01T05:51:10.536Z,3391.88
2023-06-01T05:52:10.473Z,3571.88
2023-06-01T05:53:10.467Z,2694.38
2023-06-01T05:54:10.464Z,1372.50
2023-06-01T05:55:10.458Z,1018.12
2023-06-01T05:56:10.440Z,1698.75
2023-06-01T05:57:10.420Z,3200.62
2023-06-01T05:58:10.411Z,3943.12
2023-06-01T05:59:10.383Z,3735.00
2023-06-01T06:00:10.373Z,2266.88
2023-06-01T06:01:10.372Z,1130.62
2023-06-01T06:02:10.434Z,1231.88
2023-06-01T06:03:10.414Z,1951.88
2023-06-01T06:04:10.414Z,2666.25
2023-06-01T06:05:10.386Z,3240.00
2023-06-01T06:06:10.332Z,2593.12
2023-06-01T06:07:10.259Z,1451.25
2023-06-01T06:08:10.314Z,1445.62
2023-06-01T06:09:10.243Z,2143.12
2023-06-01T06:10:10.248Z,2953.12
2023-06-01T06:11:10.234Z,3268.12
2023-06-01T06:12:10.226Z,2193.75
2023-06-01T06:13:10.207Z,1603.12
2023-06-01T06:14:10.308Z,1552.50
2023-06-01T06:15:10.265Z,1873.12
2023-06-01T06:16:10.185Z,2829.38
2023-06-01T06:17:10.175Z,3763.12
2023-06-01T06:18:10.204Z,2761.88
2023-06-01T06:19:10.112Z,1614.38
2023-06-01T06:20:10.136Z,1293.75
2023-06-01T06:21:10.110Z,1440.00
2023-06-01T06:22:10.185Z,2818.12
2023-06-01T06:23:10.114Z,3841.88
2023-06-01T06:24:10.096Z,3031.88
2023-06-01T06:25:10.062Z,1895.62
2023-06-01T06:26:10.037Z,1940.62
2023-06-01T06:27:11.140Z,1625.62
2023-06-01T06:28:10.078Z,2036.25
2023-06-01T06:29:10.032Z,2953.12
2023-06-01T06:30:10.016Z,2716.88
2023-06-01T06:31:09.980Z,1665.00
2023-06-01T06:32:09.993Z,1726.88
2023-06-01T06:33:13.567Z,1996.88
2023-06-01T06:34:10.949Z,2148.75
2023-06-01T06:35:09.910Z,1968.75
2023-06-01T06:36:09.912Z,1186.88
2023-06-01T06:37:09.902Z,568.12
2023-06-01T06:38:09.953Z,472.50
2023-06-01T06:39:09.885Z,444.38
2023-06-01T06:40:09.851Z,444.38
2023-06-01T06:41:09.886Z,433.12
2023-06-01T06:42:09.895Z,427.50
2023-06-01T06:43:09.820Z,427.50
2023-06-01T06:44:09.793Z,421.88
2023-06-01T06:45:09.799Z,421.88
2023-06-01T06:46:09.924Z,416.25
2023-06-01T06:47:09.797Z,410.62
2023-06-01T06:48:09.767Z,405.00
2023-06-01T06:49:09.735Z,399.38
2023-06-01T06:50:09.748Z,393.75
2023-06-01T06:51:09.804Z,393.75
2023-06-01T06:52:09.733Z,393.75
2023-06-01T06:53:09.695Z,393.75
2023-06-01T06:54:09.669Z,393.75
2023-06-01T06:55:09.683Z,393.75
2023-06-01T06:56:09.658Z,393.75
2023-06-01T06:57:09.634Z,393.75
2023-06-01T06:58:09.620Z,393.75
2023-06-01T06:59:09.608Z,393.75
2023-06-01T07:00:09.663Z,393.75
2023-06-01T07:01:09.638Z,393.75
2023-06-01T07:02:09.580Z,393.75
2023-06-01T07:03:09.758Z,388.12
2023-06-01T07:04:09.649Z,382.50
2023-06-01T07:05:09.553Z,382.50
2023-06-01T07:06:09.599Z,376.88
2023-06-01T07:07:09.513Z,365.62
2023-06-01T07:08:09.502Z,382.50
2023-06-01T07:09:09.572Z,382.50
2023-06-01T07:10:09.477Z,388.12
2023-06-01T07:11:09.524Z,399.38
2023-06-01T07:12:09.486Z,405.00
2023-06-01T07:13:09.474Z,405.00
2023-06-01T07:14:09.425Z,405.00
2023-06-01T07:15:09.464Z,405.00
2023-06-01T07:16:09.520Z,382.50
2023-06-01T07:17:09.574Z,405.00
2023-06-01T07:18:09.652Z,410.62
2023-06-01T07:19:09.542Z,416.25
2023-06-01T07:20:09.364Z,416.25
2023-06-01T07:21:09.333Z,416.25
2023-06-01T07:22:09.298Z,416.25
2023-06-01T07:23:09.297Z,416.25
2023-06-01T07:24:09.344Z,410.62
2023-06-01T07:25:09.294Z,410.62
2023-06-01T07:26:09.252Z,405.00
2023-06-01T07:27:09.251Z,405.00
2023-06-01T07:28:09.401Z,399.38
2023-06-01T07:29:09.242Z,393.75
2023-06-01T07:30:09.206Z,388.12
2023-06-01T07:31:09.351Z,382.50
2023-06-01T07:32:09.363Z,382.50
2023-06-01T07:33:09.379Z,360.00
2023-06-01T07:34:09.168Z,360.00
2023-06-01T07:35:09.155Z,343.12
2023-06-01T07:36:09.142Z,348.75
2023-06-01T07:37:17.823Z,326.25
2023-06-01T07:38:10.129Z,371.25
2023-06-01T07:39:09.090Z,376.88
2023-06-01T07:40:09.186Z,376.88
2023-06-01T07:41:09.069Z,376.88
2023-06-01T07:42:09.053Z,376.88
2023-06-01T07:43:09.072Z,376.88
2023-06-01T07:44:09.038Z,371.25
2023-06-01T07:45:09.018Z,371.25
2023-06-01T07:46:09.068Z,371.25
2023-06-01T07:47:09.001Z,365.62
2023-06-01T07:48:11.002Z,360.00
2023-06-01T07:49:08.958Z,360.00
2023-06-01T07:50:08.988Z,360.00
2023-06-01T07:51:08.948Z,360.00
2023-06-01T07:52:08.921Z,343.12
2023-06-01T07:53:08.908Z,348.75
2023-06-01T07:54:08.907Z,360.00
2023-06-01T07:55:08.930Z,354.38
2023-06-01T07:56:08.878Z,354.38
2023-06-01T07:57:08.879Z,348.75
2023-06-01T07:58:08.871Z,348.75
2023-06-01T07:59:08.869Z,348.75
2023-06-01T08:00:08.821Z,343.12
2023-06-01T08:01:08.834Z,343.12
2023-06-01T08:02:08.836Z,343.12
2023-06-01T08:03:08.864Z,337.50
2023-06-01T08:04:08.754Z,320.62
2023-06-01T08:05:08.777Z,337.50
2023-06-01T08:06:08.761Z,331.88
2023-06-01T08:07:08.732Z,331.88
2023-06-01T08:08:08.711Z,331.88
2023-06-01T08:09:08.721Z,326.25
2023-06-01T08:10:08.689Z,326.25
2023-06-01T08:11:08.696Z,326.25
2023-06-01T08:12:08.663Z,320.62
2023-06-01T08:13:08.670Z,320.62
2023-06-01T08:14:08.676Z,320.62
2023-06-01T08:15:08.636Z,315.00
2023-06-01T08:16:08.610Z,315.00
2023-06-01T08:17:08.826Z,315.00
2023-06-01T08:18:08.607Z,309.38
2023-06-01T08:19:08.584Z,303.75
2023-06-01T08:20:08.621Z,303.75
2023-06-01T08:21:08.577Z,309.38
2023-06-01T08:22:08.860Z,303.75
2023-06-01T08:23:08.524Z,303.75
2023-06-01T08:24:08.503Z,303.75
2023-06-01T08:25:08.527Z,303.75
2023-06-01T08:26:08.476Z,303.75
2023-06-01T08:27:08.523Z,303.75
2023-06-01T08:28:08.472Z,303.75
2023-06-01T08:29:08.488Z,303.75
2023-06-01T08:30:08.519Z,298.12
2023-06-01T08:31:08.528Z,298.12
2023-06-01T08:32:08.475Z,298.12
2023-06-01T08:33:08.517Z,298.12
2023-06-01T08:34:08.419Z,298.12
2023-06-01T08:35:08.377Z,298.12
2023-06-01T08:36:08.409Z,292.50
2023-06-01T08:37:08.347Z,292.50
2023-06-01T08:38:08.367Z,292.50
2023-06-01T08:39:08.445Z,292.50
2023-06-01T08:40:08.318Z,292.50
2023-06-01T08:41:08.357Z,292.50
2023-06-01T08:42:10.203Z,292.50
2023-06-01T08:43:08.281Z,286.88
2023-06-01T08:44:08.273Z,281.25
2023-06-01T08:45:08.252Z,286.88
2023-06-01T08:46:08.227Z,292.50
2023-06-01T08:47:08.282Z,292.50
2023-06-01T08:48:08.232Z,286.88
2023-06-01T08:49:08.214Z,281.25
2023-06-01T08:50:08.171Z,270.00
2023-06-01T08:51:08.168Z,258.75
2023-06-01T08:52:08.145Z,292.50
2023-06-01T08:53:08.207Z,292.50
2023-06-01T08:54:08.130Z,292.50
2023-06-01T08:55:08.120Z,298.12
2023-06-01T08:56:08.096Z,292.50
2023-06-01T08:57:08.129Z,298.12
2023-06-01T08:58:08.094Z,298.12
2023-06-01T08:59:08.062Z,298.12
2023-06-01T09:00:08.070Z,298.12
2023-06-01T09:01:08.057Z,298.12
2023-06-01T09:02:08.025Z,292.50
2023-06-01T09:03:08.271Z,281.25
2023-06-01T09:04:08.024Z,298.12
2023-06-01T09:05:08.001Z,292.50
2023-06-01T09:06:07.983Z,298.12
2023-06-01T09:07:08.019Z,264.38
2023-06-01T09:08:07.956Z,275.62
2023-06-01T09:09:08.099Z,292.50
2023-06-01T09:10:08.105Z,275.62
2023-06-01T09:11:07.907Z,275.62
2023-06-01T09:12:07.910Z,281.25
2023-06-01T09:13:07.899Z,286.88
2023-06-01T09:14:07.861Z,275.62
2023-06-01T09:15:07.886Z,258.75
2023-06-01T09:16:07.858Z,270.00
2023-06-01T09:17:07.935Z,275.62
2023-06-01T09:18:08.011Z,247.50
2023-06-01T09:19:07.804Z,275.62
2023-06-01T09:20:07.807Z,286.88
2023-06-01T09:21:07.793Z,298.12
2023-06-01T09:22:07.834Z,292.50
2023-06-01T09:23:07.760Z,286.88
2023-06-01T09:24:07.726Z,281.25
2023-06-01T09:25:07.735Z,264.38
2023-06-01T09:26:07.730Z,253.12
2023-06-01T09:27:07.711Z,241.88
2023-06-01T09:28:07.687Z,247.50
2023-06-01T09:29:07.697Z,236.25
2023-06-01T09:30:07.669Z,258.75
2023-06-01T09:31:07.697Z,303.75
2023-06-01T09:32:07.649Z,303.75
2023-06-01T09:33:07.675Z,320.62
2023-06-01T09:34:07.607Z,326.25
2023-06-01T09:35:07.611Z,320.62
2023-06-01T09:36:07.596Z,281.25
2023-06-01T09:37:07.579Z,275.62
2023-06-01T09:38:07.567Z,258.75
2023-06-01T09:39:07.545Z,247.50
2023-06-01T09:40:07.546Z,253.12
2023-06-01T09:41:07.537Z,258.75
2023-06-01T09:42:07.515Z,275.62
2023-06-01T09:43:07.514Z,281.25
2023-06-01T09:44:07.482Z,281.25
2023-06-01T09:45:07.493Z,315.00
2023-06-01T09:46:07.492Z,320.62
2023-06-01T09:47:07.598Z,326.25
2023-06-01T09:48:07.486Z,309.38
2023-06-01T09:49:07.451Z,320.62
2023-06-01T09:50:07.417Z,320.62
2023-06-01T09:51:07.397Z,331.88
2023-06-01T09:52:07.442Z,315.00
2023-06-01T09:53:07.389Z,275.62
2023-06-01T09:54:07.377Z,264.38
2023-06-01T09:55:07.342Z,270.00
2023-06-01T09:56:07.321Z,270.00
2023-06-01T09:57:11.419Z,247.50
2023-06-01T09:58:07.312Z,253.12
2023-06-01T09:59:07.329Z,258.75
2023-06-01T10:00:07.312Z,241.88
2023-06-01T10:01:07.295Z,253.12
2023-06-01T10:02:07.388Z,292.50
2023-06-01T10:03:07.422Z,331.88
2023-06-01T10:04:07.454Z,348.75
2023-06-01T10:05:07.225Z,354.38
2023-06-01T10:06:07.198Z,354.38
2023-06-01T10:07:07.191Z,343.12
2023-06-01T10:08:07.194Z,337.50
2023-06-01T10:09:07.151Z,320.62
2023-06-01T10:10:07.146Z,264.38
2023-06-01T10:11:07.195Z,292.50
2023-06-01T10:12:07.118Z,286.88
2023-06-01T10:13:07.140Z,253.12
2023-06-01T10:14:07.094Z,315.00
2023-06-01T10:15:20.654Z,320.62
2023-06-01T10:16:08.181Z,298.12
2023-06-01T10:17:07.062Z,241.88
2023-06-01T10:18:07.103Z,225.00
2023-06-01T10:19:07.058Z,247.50
2023-06-01T10:20:07.017Z,236.25
2023-06-01T10:21:07.006Z,219.38
2023-06-01T10:22:07.033Z,208.12
2023-06-01T10:23:09.263Z,236.25
2023-06-01T10:24:08.020Z,292.50
2023-06-01T10:25:06.971Z,298.12
2023-06-01T10:26:06.956Z,281.25
2023-06-01T10:27:06.953Z,236.25
2023-06-01T10:28:06.919Z,258.75
2023-06-01T10:29:06.909Z,253.12
2023-06-01T10:30:06.881Z,275.62
2023-06-01T10:31:06.893Z,281.25
2023-06-01T10:32:07.047Z,247.50
2023-06-01T10:33:06.936Z,247.50
2023-06-01T10:34:06.853Z,270.00
2023-06-01T10:35:06.851Z,270.00
2023-06-01T10:36:06.844Z,253.12
2023-06-01T10:37:06.807Z,180.00
2023-06-01T10:38:06.781Z,191.25
2023-06-01T10:39:06.789Z,208.12
2023-06-01T10:40:06.762Z,208.12
2023-06-01T10:41:06.773Z,247.50
2023-06-01T10:42:06.733Z,281.25
2023-06-01T10:43:06.755Z,286.88
2023-06-01T10:44:06.723Z,286.88
2023-06-01T10:45:06.697Z,275.62
2023-06-01T10:46:06.801Z,281.25
2023-06-01T10:47:06.692Z,286.88
2023-06-01T10:48:06.665Z,286.88
2023-06-01T10:49:06.668Z,286.88
2023-06-01T10:50:06.662Z,292.50
2023-06-01T10:51:06.625Z,292.50
2023-06-01T10:52:06.603Z,292.50
2023-06-01T10:53:06.606Z,286.88
2023-06-01T10:54:06.636Z,281.25
2023-06-01T10:55:06.606Z,292.50
2023-06-01T10:56:06.571Z,286.88
2023-06-01T10:57:06.527Z,286.88
2023-06-01T10:58:06.537Z,286.88
2023-06-01T10:59:16.527Z,286.88
2023-06-01T11:00:07.568Z,281.25
2023-06-01T11:01:06.725Z,264.38
2023-06-01T11:02:06.566Z,275.62
2023-06-01T11:03:06.589Z,264.38
2023-06-01T11:04:06.500Z,258.75
2023-06-01T11:05:06.507Z,270.00
2023-06-01T11:06:07.640Z,275.62
2023-06-01T11:07:06.403Z,275.62
2023-06-01T11:08:06.430Z,264.38
2023-06-01T11:09:06.597Z,236.25
2023-06-01T11:10:06.396Z,196.88
2023-06-01T11:11:06.565Z,168.75
2023-06-01T11:12:06.341Z,163.12
2023-06-01T11:13:06.363Z,151.88
2023-06-01T11:14:06.328Z,163.12
2023-06-01T11:15:06.319Z,168.75
2023-06-01T11:17:06.290Z,146.25
2023-06-01T11:18:06.307Z,146.25
2023-06-01T11:19:06.280Z,157.50
2023-06-01T11:20:06.243Z,180.00
2023-06-01T11:21:06.271Z,157.50
2023-06-01T11:22:06.593Z,168.75
2023-06-01T11:23:06.201Z,202.50
2023-06-01T11:24:06.220Z,219.38
2023-06-01T11:25:06.180Z,230.62
2023-06-01T11:26:06.165Z,225.00
2023-06-01T11:27:06.144Z,225.00
2023-06-01T11:28:06.167Z,247.50
2023-06-01T11:29:06.145Z,258.75
2023-06-01T11:30:06.124Z,264.38
2023-06-01T11:31:06.185Z,253.12
2023-06-01T11:32:06.164Z,264.38
2023-06-01T11:33:06.091Z,247.50
2023-06-01T11:34:06.058Z,230.62
2023-06-01T11:35:06.040Z,225.00
2023-06-01T11:36:06.043Z,185.62
2023-06-01T11:37:06.035Z,191.25
2023-06-01T11:38:06.020Z,174.38
2023-06-01T11:39:16.715Z,151.88
2023-06-01T11:40:07.000Z,185.62
2023-06-01T11:41:05.981Z,168.75
2023-06-01T11:42:05.978Z,174.38
2023-06-01T11:43:05.973Z,191.25
2023-06-01T11:44:05.978Z,185.62
2023-06-01T11:45:05.952Z,208.12
2023-06-01T11:46:17.769Z,213.75
2023-06-01T11:47:07.107Z,230.62
2023-06-01T11:48:05.987Z,230.62
2023-06-01T11:49:06.083Z,247.50
2023-06-01T11:50:05.869Z,253.12
2023-06-01T11:51:05.848Z,225.00
2023-06-01T11:52:05.859Z,236.25
2023-06-01T11:53:05.889Z,230.62
2023-06-01T11:54:05.794Z,236.25
2023-06-01T11:55:05.805Z,236.25
2023-06-01T11:56:05.779Z,241.88
2023-06-01T11:57:05.769Z,253.12
2023-06-01T11:58:05.744Z,247.50
2023-06-01T11:59:05.733Z,241.88
2023-06-01T12:00:05.718Z,247.50
2023-06-01T12:01:05.978Z,247.50
2023-06-01T12:02:09.622Z,241.88
2023-06-01T12:03:05.747Z,241.88
2023-06-01T12:04:05.810Z,241.88
2023-06-01T12:05:05.644Z,241.88
2023-06-01T12:06:05.654Z,241.88
2023-06-01T12:07:05.668Z,241.88
2023-06-01T12:08:05.620Z,241.88
2023-06-01T12:09:05.626Z,236.25
2023-06-01T12:10:05.585Z,236.25
2023-06-01T12:11:05.655Z,236.25
2023-06-01T12:12:05.575Z,236.25
2023-06-01T12:13:05.542Z,236.25
2023-06-01T12:14:05.565Z,236.25
2023-06-01T12:15:05.526Z,236.25
2023-06-01T12:16:20.716Z,236.25
2023-06-01T12:17:06.618Z,230.62
2023-06-01T12:18:05.713Z,236.25
2023-06-01T12:19:05.491Z,230.62
2023-06-01T12:20:05.474Z,230.62
2023-06-01T12:21:05.464Z,230.62
2023-06-01T12:22:05.610Z,225.00
2023-06-01T12:23:05.418Z,225.00
2023-06-01T12:24:05.419Z,225.00
2023-06-01T12:25:05.479Z,225.00
2023-06-01T12:26:05.480Z,225.00
2023-06-01T12:27:05.365Z,225.00
2023-06-01T12:28:05.362Z,225.00
2023-06-01T12:29:05.366Z,225.00
2023-06-01T12:30:05.335Z,225.00
2023-06-01T12:31:05.380Z,225.00
2023-06-01T12:32:05.420Z,225.00
2023-06-01T12:33:05.385Z,225.00
2023-06-01T12:34:05.293Z,225.00
2023-06-01T12:35:05.260Z,225.00
2023-06-01T12:36:05.371Z,219.38
2023-06-01T12:37:05.234Z,219.38
2023-06-01T12:38:05.239Z,219.38
2023-06-01T12:39:05.221Z,219.38